Observations for Trim Patrick St
| Time | AQI | Temp °C | Hum % | Pres Pa | CO μg/m³ | H₂S μg/m³ | NO μg/m³ | NO₂ μg/m³ | O₃ μg/m³ | SO₂ μg/m³ | PM1 μg/m³ | PM2.5 μg/m³ | PM10 μg/m³ |
|---|---|---|---|---|---|---|---|---|---|---|---|---|---|
| Friday 28 August 2026 | |||||||||||||
| 06:54 | 2 | 16.3 | 89 | 38,459 | 0.21 | 2.7 | 2.5 | 7.18 | 27.42 | 0 | 14 | 20.98 | 23.08 |
| 06:53 | 2 | 16.3 | 89 | 38,459 | 0.22 | 2.96 | 2.47 | 5.95 | 28.85 | 0 | 13.14 | 18.94 | 20.83 |
| 06:50 | 2 | 16.2 | 89 | 38,459 | 0.2 | 1.32 | 2.42 | 2.86 | 33.3 | 0 | 13.14 | 20.3 | 22.33 |
| 06:45 | 2 | 16.2 | 89 | 38,459 | 0.19 | 2.81 | 2.46 | 5.7 | 44.46 | 0 | 14 | 18.95 | 20.84 |
| 06:44 | 3 | 16.2 | 89 | 38,459 | 0.2 | 2.05 | 2.43 | 2.3 | 36.42 | 0 | 14 | 21.67 | 23.84 |
| 06:43 | 2 | 16.2 | 89 | 38,459 | 0.2 | 2.62 | 2.39 | 2.53 | 36.79 | 0 | 13.14 | 19.63 | 21.59 |
| 06:42 | 2 | 16.2 | 89 | 38,459 | 0.2 | 3.2 | 2.41 | 2.75 | 40.01 | 0 | 14 | 20.31 | 22.34 |
| 06:41 | 2 | 16.2 | 89 | 38,459 | 0.21 | 2.49 | 2.43 | 3.05 | 34.79 | 0 | 11.43 | 18.95 | 20.84 |
| 06:40 | 2 | 16.2 | 89 | 38,459 | 0.22 | 2.52 | 2.44 | 2.6 | 35.16 | 0 | 13.14 | 19.63 | 21.59 |
| 06:39 | 2 | 16.2 | 89 | 38,459 | 0.21 | 2.73 | 2.42 | 3.99 | 31.42 | 0 | 13.14 | 18.95 | 20.84 |
| 06:38 | 2 | 16.2 | 89 | 38,459 | 0.24 | 3.33 | 2.43 | 5.53 | 32.58 | 0 | 11.43 | 16.22 | 17.84 |
| 06:37 | 2 | 16.2 | 89 | 38,459 | 0.2 | 2.68 | 2.42 | 3.69 | 34.86 | 0 | 14 | 19.63 | 21.59 |
| 06:36 | 2 | 16.2 | 89 | 38,459 | 0.2 | 1.92 | 2.36 | 2.53 | 36.11 | 0 | 13.14 | 18.95 | 20.84 |
| 06:35 | 2 | 16.2 | 89 | 38,459 | 0.18 | 1.81 | 2.36 | 1.84 | 39.19 | 0 | 14 | 20.99 | 23.09 |
| 06:34 | 3 | 16.2 | 89 | 38,459 | 0.19 | 2.7 | 2.38 | 3.68 | 34.33 | 0 | 14 | 19.63 | 21.59 |
| 06:33 | 3 | 16.2 | 89 | 38,459 | 0.2 | 2.44 | 2.38 | 3.83 | 30.97 | 0 | 13.14 | 18.95 | 20.84 |
| 06:32 | 3 | 16.2 | 89 | 38,459 | 0.18 | 2.96 | 2.39 | 2.67 | 38.5 | 0 | 13.14 | 20.31 | 22.34 |
| 06:31 | 3 | 16.2 | 89 | 38,459 | 0.19 | 2.02 | 2.41 | 4.15 | 30.65 | 0 | 14 | 18.27 | 20.09 |
| 06:30 | 3 | 16.2 | 89 | 38,459 | 0.2 | 1.87 | 2.4 | 2.82 | 31.61 | 0 | 13.14 | 18.95 | 20.84 |
| 06:29 | 3 | 16.2 | 89 | 38,459 | 0.2 | 2.49 | 2.4 | 4.31 | 29.51 | 0 | 11.43 | 18.27 | 20.09 |